createdAt,value
2018-02-16T00:00:52.560Z,53.97
2018-02-16T00:03:22.373Z,60.97
2018-02-16T00:05:51.317Z,56.00
2018-02-16T00:08:21.312Z,59.15
2018-02-16T00:10:56.653Z,61.65
2018-02-16T00:13:25.631Z,63.40
2018-02-16T00:15:58.242Z,58.67
2018-02-16T00:18:33.953Z,55.97
2018-02-16T00:25:08.618Z,56.83
2018-02-16T00:27:55.380Z,65.25
2018-02-16T00:33:44.003Z,61.95
2018-02-16T00:36:13.199Z,53.47
2018-02-16T00:38:42.223Z,58.87
2018-02-16T00:41:12.641Z,58.80
2018-02-16T00:43:59.717Z,59.90
2018-02-16T00:46:29.508Z,57.25
2018-02-16T00:48:58.550Z,53.10
2018-02-16T00:51:27.476Z,59.65
2018-02-16T00:53:56.487Z,57.17
2018-02-16T00:56:27.476Z,62.45
2018-02-16T00:58:56.433Z,59.58
2018-02-16T01:01:26.668Z,63.22
2018-02-16T01:04:18.908Z,62.83
2018-02-16T01:07:04.414Z,53.50
2018-02-16T01:09:33.391Z,53.40
2018-02-16T01:12:02.354Z,62.00
2018-02-16T01:14:32.022Z,54.08
2018-02-16T01:17:00.946Z,62.88
2018-02-16T01:19:29.956Z,58.38
2018-02-16T01:21:59.658Z,53.10
2018-02-16T01:24:28.608Z,62.85
2018-02-16T01:26:57.583Z,52.22
2018-02-16T01:29:26.525Z,55.08
2018-02-16T01:31:55.473Z,51.10
2018-02-16T01:34:24.379Z,55.97
2018-02-16T01:36:53.304Z,53.78
2018-02-16T01:39:22.217Z,58.08
2018-02-16T01:41:51.886Z,60.67
2018-02-16T01:44:20.810Z,70.87
2018-02-16T01:46:50.500Z,64.80
2018-02-16T01:49:19.421Z,64.93
2018-02-16T01:51:49.453Z,60.67
2018-02-16T01:54:18.399Z,57.03
2018-02-16T01:56:47.407Z,59.35
2018-02-16T01:59:17.129Z,57.70
2018-02-16T02:01:46.829Z,65.55
2018-02-16T02:04:16.508Z,60.17
2018-02-16T02:06:45.448Z,55.50
2018-02-16T02:09:15.148Z,51.67
2018-02-16T02:11:44.832Z,58.13
2018-02-16T02:14:13.901Z,55.55
2018-02-16T02:16:42.837Z,60.12
2018-02-16T02:19:12.529Z,58.17
2018-02-16T02:21:41.436Z,57.15
2018-02-16T02:24:11.148Z,59.00
2018-02-16T02:26:40.840Z,61.00
2018-02-16T02:30:29.208Z,62.42
2018-02-16T02:32:58.893Z,62.33
2018-02-16T02:35:27.883Z,56.78
2018-02-16T02:37:56.815Z,64.18
2018-02-16T02:40:25.797Z,71.03
2018-02-16T02:42:55.521Z,71.93
2018-02-16T02:45:24.522Z,70.68
2018-02-16T02:47:53.501Z,70.80
2018-02-16T02:50:23.202Z,61.72
2018-02-16T02:52:52.904Z,73.10
2018-02-16T02:55:22.608Z,72.25
2018-02-16T02:57:54.527Z,75.87
2018-02-16T03:00:23.520Z,74.55
2018-02-16T03:02:52.465Z,71.90
2018-02-16T03:05:22.215Z,69.87
2018-02-16T03:07:51.428Z,68.00
2018-02-16T03:10:20.397Z,65.60
2018-02-16T03:12:49.318Z,72.65
2018-02-16T03:15:18.293Z,73.82
2018-02-16T03:17:47.222Z,80.78
2018-02-16T03:20:16.144Z,63.63
2018-02-16T03:23:48.355Z,67.28
2018-02-16T03:26:17.284Z,67.28
2018-02-16T03:28:46.968Z,63.58
2018-02-16T03:31:15.999Z,75.90
2018-02-16T03:33:45.688Z,71.35
2018-02-16T03:36:14.607Z,65.97
2018-02-16T03:38:44.393Z,63.05
2018-02-16T03:41:13.328Z,70.32
2018-02-16T03:43:42.224Z,65.00
2018-02-16T03:46:11.160Z,74.60
2018-02-16T03:48:40.200Z,64.53
2018-02-16T03:51:09.118Z,65.90
2018-02-16T03:53:38.037Z,78.20
2018-02-16T03:56:06.983Z,73.47
2018-02-16T03:58:35.969Z,69.20
2018-02-16T04:01:05.666Z,74.85
2018-02-16T04:03:35.337Z,70.28
2018-02-16T04:06:04.317Z,71.65
2018-02-16T04:08:33.272Z,67.93
2018-02-16T04:11:02.212Z,74.93
2018-02-16T04:13:31.187Z,77.97
2018-02-16T04:16:00.105Z,76.62
2018-02-16T04:18:29.064Z,72.70
2018-02-16T04:20:58.772Z,73.00
2018-02-16T04:23:27.728Z,69.37
2018-02-16T04:25:57.740Z,69.40
2018-02-16T04:28:27.568Z,76.80
2018-02-16T04:30:56.471Z,73.70
2018-02-16T04:33:25.410Z,81.47
2018-02-16T04:35:54.367Z,75.25
2018-02-16T04:38:23.316Z,90.80
2018-02-16T04:40:53.061Z,77.97
2018-02-16T04:43:21.982Z,71.57
2018-02-16T04:45:50.928Z,68.70
2018-02-16T04:48:19.873Z,82.05
2018-02-16T04:50:48.846Z,66.68
2018-02-16T04:53:17.822Z,59.20
2018-02-16T04:55:46.757Z,61.53
2018-02-16T04:58:15.684Z,58.17
2018-02-16T05:00:44.964Z,66.05
2018-02-16T05:03:14.649Z,57.47
2018-02-16T05:05:43.584Z,64.68
2018-02-16T05:08:12.565Z,71.57
2018-02-16T05:10:42.320Z,107.53
2018-02-16T05:13:11.280Z,173.13
2018-02-16T05:15:40.511Z,99.90
2018-02-16T05:18:09.437Z,73.50
2018-02-16T05:20:38.353Z,91.25
2018-02-16T05:23:07.304Z,104.40
2018-02-16T05:25:36.354Z,87.72
2018-02-16T05:28:06.183Z,82.82
2018-02-16T05:30:36.617Z,111.18
2018-02-16T05:33:05.532Z,96.80
2018-02-16T05:35:34.486Z,87.28
2018-02-16T05:38:03.424Z,100.78
2018-02-16T05:40:32.382Z,120.72
2018-02-16T05:43:02.115Z,110.88
2018-02-16T05:45:33.080Z,104.87
2018-02-16T05:48:02.824Z,117.05
2018-02-16T05:50:34.508Z,109.90
2018-02-16T05:53:03.518Z,85.12
2018-02-16T05:55:32.443Z,75.03
2018-02-16T05:58:02.213Z,84.72
2018-02-16T06:00:31.166Z,66.15
2018-02-16T06:03:00.157Z,57.35
2018-02-16T06:05:45.644Z,70.32
2018-02-16T06:11:06.467Z,52.65
2018-02-16T06:13:36.816Z,61.47
2018-02-16T06:16:12.907Z,73.10
2018-02-16T06:18:49.252Z,50.60
2018-02-16T06:21:19.496Z,55.12
2018-02-16T06:23:57.620Z,65.07
2018-02-16T06:29:13.320Z,63.22
2018-02-16T06:31:43.773Z,65.78
2018-02-16T06:34:18.285Z,66.97
2018-02-16T06:36:47.284Z,73.47
2018-02-16T06:39:17.124Z,64.20
2018-02-16T06:41:46.076Z,62.83
2018-02-16T06:44:15.016Z,67.45
2018-02-16T06:46:44.013Z,63.42
2018-02-16T06:49:12.945Z,53.22
2018-02-16T06:51:42.680Z,59.30
2018-02-16T06:54:11.733Z,53.35
2018-02-16T06:56:41.429Z,69.97
2018-02-16T06:59:11.218Z,58.35
2018-02-16T07:01:43.684Z,64.03
2018-02-16T07:04:13.233Z,63.47
2018-02-16T07:06:43.145Z,62.05
2018-02-16T07:09:13.262Z,56.17
2018-02-16T07:11:47.879Z,60.38
2018-02-16T07:14:16.922Z,57.85
2018-02-16T07:16:46.678Z,68.00
2018-02-16T07:19:15.645Z,65.97
2018-02-16T07:21:44.593Z,60.67
2018-02-16T07:24:14.391Z,50.53
2018-02-16T07:26:44.159Z,55.53
2018-02-16T07:29:13.192Z,66.60
2018-02-16T07:31:42.207Z,68.43
2018-02-16T07:34:11.961Z,52.67
2018-02-16T07:36:53.654Z,49.58
2018-02-16T07:39:22.660Z,59.63
2018-02-16T07:41:51.745Z,52.17
2018-02-16T07:44:20.995Z,51.13
2018-02-16T07:46:51.058Z,44.35
2018-02-16T07:49:20.064Z,44.33
2018-02-16T07:51:49.032Z,47.10
2018-02-16T07:54:18.044Z,43.75
2018-02-16T07:56:46.999Z,39.17
2018-02-16T07:59:16.016Z,48.78
2018-02-16T08:01:44.957Z,46.97
2018-02-16T08:04:15.073Z,41.72
2018-02-16T08:06:44.855Z,43.78
2018-02-16T08:09:13.898Z,43.47
2018-02-16T08:11:43.809Z,42.67
2018-02-16T08:14:12.844Z,46.85
2018-02-16T08:16:44.901Z,39.47
2018-02-16T08:19:13.887Z,41.58
2018-02-16T08:21:42.859Z,37.10
2018-02-16T08:24:13.024Z,32.70
2018-02-16T08:26:42.047Z,40.28
2018-02-16T08:29:11.881Z,36.88
2018-02-16T08:31:40.873Z,38.95
2018-02-16T08:34:09.952Z,40.25
2018-02-16T08:36:44.966Z,40.63
2018-02-16T08:39:13.943Z,37.15
2018-02-16T08:41:45.256Z,37.35
2018-02-16T08:44:15.022Z,37.42
2018-02-16T08:46:44.764Z,37.92
2018-02-16T08:49:14.647Z,37.72
2018-02-16T08:51:43.667Z,48.38
2018-02-16T08:54:12.722Z,41.33
2018-02-16T08:56:42.894Z,41.00
2018-02-16T08:59:12.177Z,46.33
2018-02-16T09:01:55.701Z,40.55
2018-02-16T09:04:25.625Z,44.38
2018-02-16T09:06:54.733Z,39.30
2018-02-16T09:09:24.029Z,41.75
2018-02-16T09:11:54.085Z,36.45
2018-02-16T09:14:23.921Z,36.78
2018-02-16T09:16:53.726Z,35.90
2018-02-16T09:19:23.878Z,33.45
2018-02-16T09:21:53.649Z,31.27
2018-02-16T09:24:22.878Z,35.17
2018-02-16T09:26:52.785Z,39.17
2018-02-16T09:29:22.789Z,37.35
2018-02-16T09:31:51.827Z,32.90
2018-02-16T09:34:22.144Z,41.15
2018-02-16T09:39:31.134Z,35.53
2018-02-16T09:42:00.172Z,37.45
2018-02-16T09:44:29.977Z,31.33
2018-02-16T09:46:59.172Z,35.60
2018-02-16T09:49:28.237Z,31.67
2018-02-16T09:51:57.255Z,33.95
2018-02-16T09:54:27.248Z,31.50
2018-02-16T09:56:56.296Z,34.20
2018-02-16T09:59:25.329Z,30.37
2018-02-16T10:01:54.323Z,35.90
2018-02-16T10:04:24.205Z,33.63
2018-02-16T10:06:54.222Z,33.42
2018-02-16T10:09:23.307Z,30.42
2018-02-16T10:11:52.477Z,35.15
2018-02-16T10:14:21.671Z,28.42
2018-02-16T10:16:54.585Z,30.58
2018-02-16T10:19:24.541Z,26.12
2018-02-16T10:21:54.496Z,27.75
2018-02-16T10:24:24.391Z,26.67
2018-02-16T10:29:28.788Z,24.65
2018-02-16T10:31:57.799Z,21.40
2018-02-16T10:34:26.904Z,24.37
2018-02-16T10:36:56.200Z,24.40
2018-02-16T10:39:25.412Z,24.27
2018-02-16T10:41:54.536Z,26.45
2018-02-16T10:44:24.340Z,24.45
2018-02-16T10:46:57.870Z,20.42
2018-02-16T10:49:26.932Z,22.98
2018-02-16T10:51:56.728Z,21.73
2018-02-16T10:54:25.783Z,27.08
2018-02-16T10:56:55.614Z,23.58
2018-02-16T10:59:24.620Z,23.45
2018-02-16T11:01:57.901Z,18.45
2018-02-16T11:04:31.329Z,26.30
2018-02-16T11:07:05.592Z,25.20
2018-02-16T11:09:34.604Z,20.62
2018-02-16T11:12:04.659Z,18.70
2018-02-16T11:14:34.434Z,25.85
2018-02-16T11:17:03.799Z,22.08
2018-02-16T11:19:33.705Z,17.27
2018-02-16T11:22:02.864Z,15.00
2018-02-16T11:24:32.769Z,23.27
2018-02-16T11:27:06.520Z,21.70
2018-02-16T11:29:36.341Z,17.52
2018-02-16T11:32:05.450Z,22.08
2018-02-16T11:34:34.467Z,18.40
2018-02-16T11:37:03.664Z,16.27
2018-02-16T11:39:33.598Z,14.38
2018-02-16T11:42:03.613Z,15.70
2018-02-16T11:44:33.470Z,19.37
2018-02-16T11:47:08.464Z,17.40
2018-02-16T11:49:37.466Z,16.23
2018-02-16T11:52:06.720Z,20.75
2018-02-16T11:54:35.749Z,17.55
2018-02-16T11:57:04.718Z,15.57
2018-02-16T11:59:34.738Z,15.60
2018-02-16T12:02:03.891Z,14.73
2018-02-16T12:04:33.849Z,16.65
2018-02-16T12:07:03.166Z,18.05
2018-02-16T12:09:32.286Z,18.65
2018-02-16T12:12:02.679Z,16.58
2018-02-16T12:14:31.735Z,15.95
2018-02-16T12:17:00.878Z,14.35
2018-02-16T12:19:30.061Z,17.70
2018-02-16T12:21:59.123Z,18.37
2018-02-16T12:24:28.198Z,21.67
2018-02-16T12:26:57.504Z,19.45
2018-02-16T12:29:26.792Z,25.45
2018-02-16T12:31:56.821Z,13.95
2018-02-16T12:35:01.266Z,21.62
2018-02-16T12:37:31.635Z,16.25
2018-02-16T12:40:01.490Z,13.07
2018-02-16T12:42:30.552Z,17.52
2018-02-16T12:44:59.578Z,19.17
2018-02-16T12:47:29.483Z,17.85
2018-02-16T12:49:59.454Z,15.63
2018-02-16T12:52:28.436Z,15.38
2018-02-16T12:55:12.084Z,13.88
2018-02-16T12:57:41.564Z,15.27
2018-02-16T13:00:11.059Z,17.48
2018-02-16T13:02:40.067Z,13.88
2018-02-16T13:05:09.112Z,12.27
2018-02-16T13:07:38.241Z,8.07
2018-02-16T13:10:07.326Z,8.88
2018-02-16T13:12:36.382Z,8.35
2018-02-16T13:15:05.726Z,8.05
2018-02-16T13:17:34.860Z,14.73
2018-02-16T13:20:04.118Z,7.82
2018-02-16T13:22:38.367Z,7.30
2018-02-16T13:25:08.255Z,9.77
2018-02-16T13:27:38.035Z,9.45
2018-02-16T13:30:07.204Z,7.60
2018-02-16T13:32:36.216Z,6.65
2018-02-16T13:35:06.909Z,10.63
2018-02-16T13:37:36.738Z,8.40
2018-02-16T13:40:05.897Z,12.00
2018-02-16T13:42:35.693Z,12.40
2018-02-16T13:45:05.485Z,10.15
2018-02-16T13:47:34.629Z,11.50
2018-02-16T13:50:03.814Z,12.37
2018-02-16T13:52:32.817Z,11.57
2018-02-16T13:55:01.865Z,8.48
2018-02-16T13:57:31.734Z,10.07
2018-02-16T14:00:00.857Z,9.77
2018-02-16T14:02:30.179Z,8.43
2018-02-16T14:04:59.963Z,11.63
2018-02-16T14:07:28.973Z,10.77
2018-02-16T14:09:58.757Z,8.05
2018-02-16T14:12:27.758Z,7.40
2018-02-16T14:14:56.812Z,11.00
2018-02-16T14:17:26.134Z,9.05
2018-02-16T14:19:55.172Z,6.53
2018-02-16T14:23:27.237Z,9.38
2018-02-16T14:25:56.229Z,14.35
2018-02-16T14:28:25.362Z,10.45
2018-02-16T14:30:54.485Z,9.40
2018-02-16T14:33:23.824Z,11.00
2018-02-16T14:35:54.469Z,8.85
2018-02-16T14:38:29.292Z,10.27
2018-02-16T14:40:59.327Z,8.88
2018-02-16T14:43:28.391Z,7.90
2018-02-16T14:45:57.369Z,7.65
2018-02-16T14:48:26.439Z,9.50
2018-02-16T14:52:16.969Z,8.75
2018-02-16T14:54:49.844Z,8.95
2018-02-16T14:57:24.435Z,10.32
2018-02-16T14:59:53.462Z,10.43
2018-02-16T15:02:26.468Z,7.22
2018-02-16T15:04:55.522Z,8.55
2018-02-16T15:07:24.575Z,12.25
2018-02-16T15:09:53.554Z,9.23
2018-02-16T15:12:40.808Z,8.38
2018-02-16T15:15:45.325Z,9.82
2018-02-16T15:18:15.177Z,9.73
2018-02-16T15:20:44.311Z,8.98
2018-02-16T15:23:13.423Z,9.80
2018-02-16T15:25:44.151Z,8.60
2018-02-16T15:28:13.565Z,10.60
2018-02-16T15:30:42.663Z,8.43
2018-02-16T15:33:12.586Z,10.07
2018-02-16T15:35:42.494Z,7.75
2018-02-16T15:38:16.067Z,16.58
2018-02-16T15:40:45.991Z,8.13
2018-02-16T15:43:16.462Z,12.07
2018-02-16T15:45:45.933Z,14.82
2018-02-16T15:48:15.064Z,13.77
2018-02-16T15:50:44.119Z,14.57
2018-02-16T15:53:13.998Z,13.20
2018-02-16T15:55:44.384Z,10.13
2018-02-16T15:58:14.232Z,10.38
2018-02-16T16:00:43.374Z,13.27
2018-02-16T16:03:13.284Z,14.15
2018-02-16T16:05:48.512Z,9.00
2018-02-16T16:12:58.081Z,15.30
2018-02-16T16:15:27.167Z,13.50
2018-02-16T16:17:56.938Z,10.07
2018-02-16T16:20:26.717Z,14.38
2018-02-16T16:22:56.492Z,15.45
2018-02-16T16:25:25.783Z,9.95
2018-02-16T16:28:00.860Z,12.43
2018-02-16T16:30:30.629Z,13.85
2018-02-16T16:35:43.990Z,12.18
2018-02-16T16:38:12.990Z,17.40
2018-02-16T16:40:42.032Z,12.88
2018-02-16T16:43:11.182Z,15.63
2018-02-16T16:45:44.399Z,17.33
2018-02-16T16:48:14.771Z,16.75
2018-02-16T16:50:45.097Z,11.77
2018-02-16T16:53:14.491Z,12.05
2018-02-16T16:55:43.501Z,18.00
2018-02-16T16:58:13.980Z,23.83
2018-02-16T17:00:43.859Z,18.60
2018-02-16T17:03:12.955Z,16.90
2018-02-16T17:05:42.009Z,13.80
2018-02-16T17:08:11.877Z,18.10
2018-02-16T17:10:41.698Z,16.62
2018-02-16T17:13:10.836Z,18.02
2018-02-16T17:15:39.979Z,15.05
2018-02-16T17:18:10.178Z,20.75
2018-02-16T17:20:40.094Z,17.80
2018-02-16T17:23:14.787Z,20.45
2018-02-16T17:25:50.266Z,16.20
2018-02-16T17:28:37.746Z,15.00
2018-02-16T17:31:07.018Z,20.48
2018-02-16T17:33:37.732Z,15.32
2018-02-16T17:36:16.141Z,16.40
2018-02-16T17:38:54.341Z,18.42
2018-02-16T17:41:25.164Z,14.13
2018-02-16T17:43:54.263Z,20.37
2018-02-16T17:46:28.594Z,19.42
2018-02-16T17:49:05.528Z,14.95
2018-02-16T17:51:49.874Z,15.48
2018-02-16T17:54:23.222Z,16.75
2018-02-16T17:57:05.496Z,14.32
2018-02-16T17:59:39.303Z,13.75
2018-02-16T18:02:08.997Z,15.00
2018-02-16T18:04:59.703Z,17.10
2018-02-16T18:07:30.381Z,16.50
2018-02-16T18:10:17.609Z,20.80
2018-02-16T18:12:48.170Z,18.50
2018-02-16T18:15:21.645Z,16.27
2018-02-16T18:18:02.834Z,29.75
2018-02-16T18:20:36.945Z,22.48
2018-02-16T18:23:09.005Z,17.48
2018-02-16T18:25:45.246Z,18.58
2018-02-16T18:28:14.809Z,19.00
2018-02-16T18:31:46.349Z,17.42
2018-02-16T18:34:20.063Z,29.80
2018-02-16T18:36:50.924Z,23.77
2018-02-16T18:39:29.248Z,19.98
2018-02-16T18:42:02.985Z,22.25
2018-02-16T18:44:39.497Z,25.52
2018-02-16T18:47:08.811Z,20.00
2018-02-16T18:49:42.933Z,20.83
2018-02-16T18:52:12.080Z,20.37
2018-02-16T18:54:42.730Z,20.70
2018-02-16T18:57:11.719Z,15.32
2018-02-16T18:59:41.469Z,20.77
2018-02-16T19:02:10.541Z,19.75
2018-02-16T19:04:39.528Z,20.27
2018-02-16T19:07:08.818Z,19.83
2018-02-16T19:09:44.549Z,17.15
2018-02-16T19:15:36.853Z,19.85
2018-02-16T19:18:16.138Z,23.15
2018-02-16T19:20:45.879Z,19.23
2018-02-16T19:23:15.637Z,21.48
2018-02-16T19:26:14.841Z,20.55
2018-02-16T19:28:44.630Z,16.92
2018-02-16T19:31:13.606Z,17.85
2018-02-16T19:33:42.993Z,17.20
2018-02-16T19:36:15.085Z,18.75
2018-02-16T19:38:46.896Z,20.83
2018-02-16T19:41:29.386Z,21.35
2018-02-16T19:43:58.839Z,23.92
2018-02-16T19:46:34.095Z,21.60
2018-02-16T19:49:06.028Z,17.77
2018-02-16T19:51:35.807Z,16.80
2018-02-16T19:54:04.830Z,20.23
2018-02-16T19:56:34.546Z,19.35
2018-02-16T19:59:04.611Z,23.02
2018-02-16T20:01:33.629Z,21.77
2018-02-16T20:04:06.422Z,17.50
2018-02-16T20:06:36.498Z,17.05
2018-02-16T20:09:06.921Z,22.85
2018-02-16T20:11:41.791Z,22.30
2018-02-16T20:14:14.950Z,22.73
2018-02-16T20:16:51.177Z,23.02
2018-02-16T20:19:34.671Z,18.02
2018-02-16T20:22:09.294Z,21.25
2018-02-16T20:24:54.693Z,18.98
2018-02-16T20:27:27.406Z,20.83
2018-02-16T20:29:58.585Z,23.55
2018-02-16T20:32:39.132Z,26.77
2018-02-16T20:35:11.317Z,29.95
2018-02-16T20:41:04.603Z,23.83
2018-02-16T20:43:49.147Z,19.10
2018-02-16T20:46:37.424Z,23.98
2018-02-16T20:49:16.926Z,28.23
2018-02-16T20:51:58.110Z,27.02
2018-02-16T20:57:50.930Z,25.05
2018-02-16T21:00:29.737Z,25.30
2018-02-16T21:03:09.154Z,27.08
2018-02-16T21:05:50.248Z,30.62
2018-02-16T21:08:27.010Z,30.45
2018-02-16T21:11:05.803Z,25.98
2018-02-16T21:13:48.162Z,30.42
2018-02-16T21:19:14.160Z,22.13
2018-02-16T21:21:47.071Z,27.08
2018-02-16T21:26:54.617Z,28.00
2018-02-16T21:29:24.441Z,32.25
2018-02-16T21:31:53.431Z,24.65
2018-02-16T21:34:23.122Z,31.70
2018-02-16T21:36:52.164Z,24.83
2018-02-16T21:39:21.294Z,29.95
2018-02-16T21:41:51.025Z,23.90
2018-02-16T21:44:20.103Z,27.80
2018-02-16T21:46:53.370Z,26.25
2018-02-16T21:49:26.061Z,25.37
2018-02-16T21:51:56.030Z,30.80
2018-02-16T21:54:25.576Z,23.33
2018-02-16T21:56:56.974Z,27.17
2018-02-16T21:59:37.380Z,24.77
2018-02-16T22:02:21.547Z,31.58
2018-02-16T22:05:02.004Z,22.48
2018-02-16T22:07:32.818Z,25.85
2018-02-16T22:10:05.857Z,22.75
2018-02-16T22:12:35.977Z,24.67
2018-02-16T22:15:05.832Z,19.73
2018-02-16T22:17:42.251Z,24.25
2018-02-16T22:20:15.122Z,21.48
2018-02-16T22:22:49.967Z,21.45
2018-02-16T22:25:24.225Z,23.98
2018-02-16T22:27:53.551Z,19.08
2018-02-16T22:30:22.562Z,21.23
2018-02-16T22:32:53.947Z,23.30
2018-02-16T22:35:24.345Z,25.83
2018-02-16T22:37:59.010Z,24.17
2018-02-16T22:40:29.353Z,23.08
2018-02-16T22:42:59.327Z,23.70
2018-02-16T22:45:29.438Z,28.12
2018-02-16T22:48:05.872Z,51.47
2018-02-16T22:50:37.023Z,45.08
2018-02-16T22:53:07.058Z,44.08
2018-02-16T22:55:37.049Z,37.75
2018-02-16T22:58:13.085Z,39.97
2018-02-16T23:00:43.667Z,42.72
2018-02-16T23:03:17.729Z,32.50
2018-02-16T23:05:46.918Z,34.88
2018-02-16T23:08:21.307Z,18.65
2018-02-16T23:10:55.225Z,21.83
2018-02-16T23:13:37.162Z,19.83
2018-02-16T23:16:11.544Z,20.95
2018-02-16T23:18:41.949Z,22.15
2018-02-16T23:21:14.404Z,22.67
2018-02-16T23:23:50.235Z,26.90
2018-02-16T23:26:20.889Z,19.17
2018-02-16T23:29:03.385Z,22.50
2018-02-16T23:31:38.423Z,21.42
2018-02-16T23:34:15.865Z,16.80
2018-02-16T23:36:48.418Z,24.55
2018-02-16T23:39:23.430Z,19.08
2018-02-16T23:41:57.971Z,17.42
2018-02-16T23:44:34.325Z,30.52
2018-02-16T23:47:07.094Z,29.12
2018-02-16T23:49:39.952Z,32.35
2018-02-16T23:52:23.776Z,31.30
2018-02-16T23:55:02.534Z,29.67
2018-02-16T23:57:37.960Z,32.75
